Time;durP1;ratioP1;P1;durP2;ratioP2;P2;SDS_P1;SDS_P2;PMS_P1;PMS_P2;Temp;Humidity;BMP_temperature;BMP_pressure;BME280_temperature;BME280_humidity;BME280_pressure;Samples;Min_cycle;Max_cycle;Signal;HPM_P1;HPM_P2
2021/12/04 00:01:17;;;;;;;15.68;8.57;;;;;;;;;;4995185;28;20026;-65
2021/12/04 00:04:03;;;;;;;4.30;3.00;;;;;;;;;;4993588;28;20515;-64
2021/12/04 00:06:49;;;;;;;5.00;2.70;;;;;;;;;;4981418;28;20036;-66
2021/12/04 00:09:35;;;;;;;6.03;2.53;;;;;;;;;;4994270;28;20038;-63
2021/12/04 00:12:20;;;;;;;4.03;2.45;;;;;;;;;;4994716;28;20079;-67
2021/12/04 00:15:06;;;;;;;4.22;2.20;;;;;;;;;;4978444;28;20107;-63
2021/12/04 00:17:51;;;;;;;5.25;2.42;;;;;;;;;;4993923;28;20049;-62
2021/12/04 00:20:38;;;;;;;7.05;2.65;;;;;;;;;;4994902;28;20061;-62
2021/12/04 00:23:23;;;;;;;3.75;2.35;;;;;;;;;;4979918;28;20041;-62
2021/12/04 00:26:09;;;;;;;6.97;2.75;;;;;;;;;;4994868;28;20224;-62
2021/12/04 00:28:54;;;;;;;7.07;2.58;;;;;;;;;;4979766;28;20476;-65
2021/12/04 00:31:45;;;;;;;4.57;2.60;;;;;;;;;;4994723;28;20034;-73
2021/12/04 00:34:33;;;;;;;4.72;2.60;;;;;;;;;;4973766;28;20113;-65
2021/12/04 00:49:25;;;;;;;3.10;2.58;;;;;;;;;;4975867;28;20042;-70
2021/12/04 00:52:11;;;;;;;4.88;2.75;;;;;;;;;;4974933;28;20019;-75
2021/12/04 00:54:56;;;;;;;4.40;2.17;;;;;;;;;;4968356;28;20033;-65
2021/12/04 00:57:41;;;;;;;5.00;2.65;;;;;;;;;;4994226;28;20095;-65
2021/12/04 01:00:27;;;;;;;6.22;3.25;;;;;;;;;;4993107;28;20065;-65
2021/12/04 01:03:12;;;;;;;4.05;2.50;;;;;;;;;;4992196;28;20030;-66
2021/12/04 01:05:57;;;;;;;6.53;2.58;;;;;;;;;;4974586;28;20034;-66
2021/12/04 01:08:42;;;;;;;4.18;2.70;;;;;;;;;;4987646;28;20056;-70
2021/12/04 01:11:28;;;;;;;4.90;2.40;;;;;;;;;;4979959;28;20099;-72
2021/12/04 01:14:14;;;;;;;5.32;2.60;;;;;;;;;;4993711;28;20032;-73
2021/12/04 01:17:00;;;;;;;6.82;2.90;;;;;;;;;;4993091;28;20479;-72
2021/12/04 01:19:45;;;;;;;4.40;2.60;;;;;;;;;;4992375;28;20046;-74
2021/12/04 01:22:33;;;;;;;6.28;2.35;;;;;;;;;;4972723;28;20033;-74
2021/12/04 01:25:18;;;;;;;4.97;2.70;;;;;;;;;;4982416;28;20054;-72
2021/12/04 01:28:04;;;;;;;8.77;2.88;;;;;;;;;;4993632;28;20033;-65
2021/12/04 01:30:49;;;;;;;5.75;2.72;;;;;;;;;;4979134;28;20064;-73
2021/12/04 01:33:35;;;;;;;6.50;2.90;;;;;;;;;;4993796;28;20034;-73
2021/12/04 01:36:20;;;;;;;4.70;2.75;;;;;;;;;;4992197;28;20362;-73
2021/12/04 01:39:06;;;;;;;5.32;2.72;;;;;;;;;;4993348;28;20465;-73
2021/12/04 01:41:51;;;;;;;5.65;2.90;;;;;;;;;;4995262;28;20766;-74
2021/12/04 01:44:36;;;;;;;5.50;2.92;;;;;;;;;;4993070;28;20042;-74
2021/12/04 01:47:22;;;;;;;4.28;3.17;;;;;;;;;;4979348;28;20030;-65
2021/12/04 01:50:07;;;;;;;7.15;3.17;;;;;;;;;;4993233;28;20101;-72
2021/12/04 01:52:55;;;;;;;6.07;2.88;;;;;;;;;;4991680;28;20079;-67
2021/12/04 01:55:41;;;;;;;8.23;4.32;;;;;;;;;;4979654;28;20018;-69
2021/12/04 01:58:27;;;;;;;12.02;3.80;;;;;;;;;;4992018;28;20500;-69
2021/12/04 02:01:12;;;;;;;7.63;3.33;;;;;;;;;;4993379;28;20022;-69
2021/12/04 02:03:57;;;;;;;5.93;3.53;;;;;;;;;;4960658;28;20490;-63
2021/12/04 02:06:43;;;;;;;6.53;3.13;;;;;;;;;;4972371;28;20038;-64
2021/12/04 02:09:28;;;;;;;6.43;3.97;;;;;;;;;;4973596;28;20026;-63
2021/12/04 02:12:13;;;;;;;7.03;3.50;;;;;;;;;;4960545;28;20151;-63
2021/12/04 02:14:58;;;;;;;7.70;3.70;;;;;;;;;;4992623;28;20068;-63
2021/12/04 02:17:48;;;;;;;6.45;3.65;;;;;;;;;;4991794;28;20069;-62
2021/12/04 02:20:34;;;;;;;6.63;3.10;;;;;;;;;;4993503;28;20037;-62
2021/12/04 02:23:20;;;;;;;6.40;3.20;;;;;;;;;;4980679;28;20411;-62
2021/12/04 02:26:05;;;;;;;8.93;3.35;;;;;;;;;;4992455;28;20022;-72
2021/12/04 02:28:51;;;;;;;6.00;3.20;;;;;;;;;;4991857;28;20038;-73
2021/12/04 02:31:36;;;;;;;6.32;3.45;;;;;;;;;;4993021;28;20362;-73
2021/12/04 02:34:22;;;;;;;5.35;3.45;;;;;;;;;;4991401;28;20036;-73
2021/12/04 02:37:08;;;;;;;5.80;3.70;;;;;;;;;;4979126;28;20026;-75
2021/12/04 02:39:58;;;;;;;4.50;2.70;;;;;;;;;;4991560;28;20030;-73
2021/12/04 02:42:45;;;;;;;6.15;3.38;;;;;;;;;;4992800;28;20033;-67
2021/12/04 02:45:30;;;;;;;8.88;3.75;;;;;;;;;;4977412;28;20102;-65
2021/12/04 02:48:17;;;;;;;6.93;3.22;;;;;;;;;;4979060;28;20026;-67
2021/12/04 02:51:03;;;;;;;5.93;2.88;;;;;;;;;;4959628;28;20082;-65
2021/12/04 02:53:48;;;;;;;5.43;3.53;;;;;;;;;;4973514;28;20182;-64
2021/12/04 02:56:33;;;;;;;6.40;3.65;;;;;;;;;;4991887;28;20400;-66
2021/12/04 02:59:18;;;;;;;4.45;3.28;;;;;;;;;;4991098;28;20018;-74
2021/12/04 03:02:17;;;;;;;6.60;3.45;;;;;;;;;;4979061;28;20101;-69
2021/12/04 03:05:06;;;;;;;7.88;3.80;;;;;;;;;;4982791;28;20463;-69
2021/12/04 03:07:52;;;;;;;5.57;3.58;;;;;;;;;;4978913;28;20044;-70
2021/12/04 03:10:38;;;;;;;9.90;4.53;;;;;;;;;;4991016;28;20599;-68
2021/12/04 03:13:23;;;;;;;7.50;3.92;;;;;;;;;;4978496;28;20034;-69
2021/12/04 03:16:08;;;;;;;6.18;3.63;;;;;;;;;;4972046;28;20031;-69
2021/12/04 03:18:54;;;;;;;6.75;3.92;;;;;;;;;;5023623;28;20053;-68
2021/12/04 03:21:39;;;;;;;7.18;5.60;;;;;;;;;;4991024;28;20049;-62
2021/12/04 03:24:25;;;;;;;7.53;4.80;;;;;;;;;;4988247;28;20038;-62
2021/12/04 03:27:12;;;;;;;7.30;4.78;;;;;;;;;;4982043;28;20019;-61
2021/12/04 03:30:05;;;;;;;8.52;4.47;;;;;;;;;;4962561;28;20023;-63
2021/12/04 03:41:40;;;;;;;6.40;3.85;;;;;;;;;;4993971;28;20026;-64
2021/12/04 03:44:25;;;;;;;9.00;4.68;;;;;;;;;;4981653;28;20030;-64
2021/12/04 03:47:11;;;;;;;8.00;4.60;;;;;;;;;;4987478;28;20098;-64
2021/12/04 03:49:57;;;;;;;5.53;3.55;;;;;;;;;;4994876;28;20416;-64
2021/12/04 03:52:42;;;;;;;8.60;4.43;;;;;;;;;;4993667;28;20503;-65
2021/12/04 03:55:27;;;;;;;9.63;4.30;;;;;;;;;;4995070;28;20113;-72
2021/12/04 03:58:13;;;;;;;8.77;5.05;;;;;;;;;;4981095;28;20030;-66
2021/12/04 04:00:58;;;;;;;8.30;4.70;;;;;;;;;;4995057;28;20030;-66
2021/12/04 04:03:43;;;;;;;6.38;4.35;;;;;;;;;;4994666;28;20090;-64
2021/12/04 04:06:28;;;;;;;7.82;4.68;;;;;;;;;;4993617;28;20030;-65
2021/12/04 04:09:29;;;;;;;8.98;5.18;;;;;;;;;;4975934;28;20030;-64
2021/12/04 04:12:14;;;;;;;6.40;3.97;;;;;;;;;;4977441;28;20481;-65
2021/12/04 04:14:59;;;;;;;8.30;4.57;;;;;;;;;;4991081;28;20044;-71
2021/12/04 04:17:45;;;;;;;5.35;3.92;;;;;;;;;;4981173;28;20489;-65
2021/12/04 04:20:30;;;;;;;8.20;5.07;;;;;;;;;;4994684;28;20027;-66
2021/12/04 04:23:15;;;;;;;10.95;4.72;;;;;;;;;;4963654;28;20038;-66
2021/12/04 04:26:01;;;;;;;7.78;4.50;;;;;;;;;;4992068;28;20056;-67
2021/12/04 04:28:46;;;;;;;11.07;6.22;;;;;;;;;;4993645;28;20026;-66
2021/12/04 04:31:32;;;;;;;7.32;4.53;;;;;;;;;;5035220;28;20035;-66
2021/12/04 04:34:30;;;;;;;5.97;3.95;;;;;;;;;;5013796;28;20481;-73
2021/12/04 04:37:37;;;;;;;6.57;4.25;;;;;;;;;;4994050;28;20393;-72
2021/12/04 05:11:35;;;;;;;4.93;3.10;;;;;;;;;;4989281;28;20560;-75
2021/12/04 05:13:46;;;;;;;4.45;3.38;;;;;;;;;;4991465;28;20061;-72
2021/12/04 05:16:43;;;;;;;7.28;3.15;;;;;;;;;;4977528;28;20049;-72
2021/12/04 05:19:38;;;;;;;6.78;3.20;;;;;;;;;;5053895;28;20164;-72
2021/12/04 05:22:23;;;;;;;5.40;2.40;;;;;;;;;;5069923;28;20025;-74
2021/12/04 05:25:08;;;;;;;6.35;2.60;;;;;;;;;;5063456;28;20612;-74
2021/12/04 05:27:54;;;;;;;4.40;2.42;;;;;;;;;;5063233;28;20175;-65
2021/12/04 05:30:39;;;;;;;4.05;2.33;;;;;;;;;;5068453;28;20036;-70
2021/12/04 05:33:25;;;;;;;2.08;1.70;;;;;;;;;;5069927;28;20039;-71
2021/12/04 05:36:10;;;;;;;5.55;2.40;;;;;;;;;;5068168;28;20062;-71
2021/12/04 05:38:55;;;;;;;5.20;3.10;;;;;;;;;;5055494;28;20119;-71
2021/12/04 05:41:41;;;;;;;4.78;2.63;;;;;;;;;;5042946;28;20029;-70
2021/12/04 05:44:28;;;;;;;3.13;2.20;;;;;;;;;;5050375;28;20082;-72
2021/12/04 05:47:24;;;;;;;3.42;2.05;;;;;;;;;;5062959;28;20094;-67
2021/12/04 05:55:56;;;;;;;3.50;1.80;;;;;;;;;;5068818;28;20115;-70
2021/12/04 05:58:41;;;;;;;4.70;1.70;;;;;;;;;;5055151;28;20032;-69
2021/12/04 06:01:28;;;;;;;2.83;1.73;;;;;;;;;;5068147;28;20107;-71
2021/12/04 06:04:13;;;;;;;3.60;1.95;;;;;;;;;;5069000;28;20024;-73
2021/12/04 06:06:58;;;;;;;1.80;1.55;;;;;;;;;;5067996;28;20051;-65
2021/12/04 06:09:44;;;;;;;3.47;1.88;;;;;;;;;;5069023;28;20078;-67
2021/12/04 06:12:29;;;;;;;2.55;1.23;;;;;;;;;;5068196;28;20450;-65
2021/12/04 06:15:14;;;;;;;2.72;1.30;;;;;;;;;;5068745;28;20029;-67
2021/12/04 06:17:59;;;;;;;3.05;1.20;;;;;;;;;;5063493;28;20032;-66
2021/12/04 06:23:49;;;;;;;1.95;1.17;;;;;;;;;;5049253;28;20068;-63
2021/12/04 06:26:35;;;;;;;2.33;1.27;;;;;;;;;;5063055;28;20075;-63
2021/12/04 06:29:22;;;;;;;1.65;1.10;;;;;;;;;;5067773;28;20387;-63
2021/12/04 06:32:07;;;;;;;3.33;1.20;;;;;;;;;;5069564;28;20032;-68
2021/12/04 06:34:52;;;;;;;2.30;1.42;;;;;;;;;;5049719;28;20025;-63
2021/12/04 06:37:38;;;;;;;2.03;1.63;;;;;;;;;;5036013;28;20480;-63
2021/12/04 06:40:26;;;;;;;4.85;1.90;;;;;;;;;;5048676;28;20399;-64
2021/12/04 06:43:11;;;;;;;4.43;1.83;;;;;;;;;;5066489;28;20086;-65
2021/12/04 06:46:01;;;;;;;4.30;1.60;;;;;;;;;;5068960;28;20100;-65
2021/12/04 06:49:23;;;;;;;;;;;;;;;;;;5053772;28;20025;-67
2021/12/04 06:52:01;;;;;;;4.32;1.25;;;;;;;;;;5068787;28;20578;-66
2021/12/04 06:54:55;;;;;;;2.65;1.40;;;;;;;;;;5039636;28;20021;-66
2021/12/04 06:57:41;;;;;;;1.95;1.10;;;;;;;;;;5048520;28;20036;-66
2021/12/04 07:00:26;;;;;;;1.88;0.98;;;;;;;;;;5070089;28;20483;-68
2021/12/04 07:03:11;;;;;;;2.08;0.75;;;;;;;;;;5070401;28;20468;-70
2021/12/04 07:05:57;;;;;;;0.80;0.80;;;;;;;;;;5038858;28;20053;-72
2021/12/04 07:08:42;;;;;;;4.07;1.17;;;;;;;;;;5054680;28;20033;-72
2021/12/04 07:11:27;;;;;;;2.75;1.10;;;;;;;;;;5072576;28;20036;-71
2021/12/04 07:14:12;;;;;;;18.55;11.18;;;;;;;;;;5055115;28;20039;-73
2021/12/04 07:17:01;;;;;;;6.70;3.35;;;;;;;;;;5072640;28;20078;-69
2021/12/04 07:19:46;;;;;;;1.80;1.20;;;;;;;;;;5056810;28;20076;-63
2021/12/04 07:22:31;;;;;;;1.27;0.80;;;;;;;;;;5058165;28;20028;-65
2021/12/04 07:25:16;;;;;;;2.08;0.90;;;;;;;;;;5047330;28;20090;-64
2021/12/04 07:28:02;;;;;;;1.58;1.00;;;;;;;;;;5058071;28;20024;-67
2021/12/04 07:30:47;;;;;;;2.75;1.20;;;;;;;;;;5071060;28;20025;-67
2021/12/04 07:33:32;;;;;;;1.80;1.10;;;;;;;;;;5072329;28;20032;-67
2021/12/04 07:36:18;;;;;;;3.28;0.90;;;;;;;;;;5070919;28;20028;-72
2021/12/04 07:39:04;;;;;;;2.05;1.17;;;;;;;;;;5057857;28;20024;-66
2021/12/04 07:41:49;;;;;;;3.67;0.70;;;;;;;;;;5070941;28;20383;-66
2021/12/04 07:44:34;;;;;;;1.45;0.80;;;;;;;;;;5057810;28;20407;-65
2021/12/04 07:47:20;;;;;;;3.50;1.25;;;;;;;;;;5050752;28;20023;-64
2021/12/04 07:50:06;;;;;;;3.10;0.90;;;;;;;;;;5051637;28;20495;-65
2021/12/04 07:52:51;;;;;;;1.48;1.05;;;;;;;;;;5051769;28;20041;-65
2021/12/04 07:55:37;;;;;;;5.40;1.77;;;;;;;;;;5052760;28;20103;-71
2021/12/04 07:58:22;;;;;;;9.35;3.97;;;;;;;;;;5071144;28;20508;-64
2021/12/04 08:01:07;;;;;;;3.92;1.65;;;;;;;;;;5070112;28;20034;-68
2021/12/04 08:03:52;;;;;;;2.28;1.52;;;;;;;;;;5057469;28;20028;-65
2021/12/04 08:06:38;;;;;;;4.10;1.38;;;;;;;;;;5070157;28;20059;-65
2021/12/04 08:09:23;;;;;;;2.30;1.58;;;;;;;;;;5070330;28;20037;-66
2021/12/04 08:12:10;;;;;;;3.00;1.75;;;;;;;;;;5040786;28;20115;-69
2021/12/04 08:14:55;;;;;;;3.40;1.60;;;;;;;;;;5071172;28;20029;-64
2021/12/04 08:17:42;;;;;;;3.28;1.98;;;;;;;;;;5053980;28;20689;-65
2021/12/04 08:20:27;;;;;;;3.03;1.38;;;;;;;;;;4975397;28;20037;-63
2021/12/04 08:23:13;;;;;;;1.30;1.05;;;;;;;;;;4991841;28;20038;-64
2021/12/04 08:25:58;;;;;;;2.13;1.50;;;;;;;;;;4994686;28;20034;-62
2021/12/04 08:28:43;;;;;;;2.00;1.40;;;;;;;;;;4993037;28;20485;-64
2021/12/04 08:31:29;;;;;;;3.13;1.20;;;;;;;;;;4994503;28;20038;-70
2021/12/04 08:34:14;;;;;;;2.50;1.33;;;;;;;;;;4993676;28;20025;-62
2021/12/04 08:37:00;;;;;;;4.05;1.55;;;;;;;;;;4994022;28;20026;-62
2021/12/04 08:39:45;;;;;;;3.72;1.20;;;;;;;;;;4987039;28;20502;-64
2021/12/04 08:42:30;;;;;;;2.65;1.20;;;;;;;;;;4993499;28;20025;-66
2021/12/04 08:45:16;;;;;;;1.42;1.10;;;;;;;;;;4994517;28;20056;-65
2021/12/04 08:48:02;;;;;;;1.30;1.10;;;;;;;;;;4993255;28;20093;-63
2021/12/04 08:50:48;;;;;;;2.35;1.08;;;;;;;;;;4994483;28;20030;-67
2021/12/04 08:53:33;;;;;;;1.73;1.00;;;;;;;;;;4992957;28;20112;-72
2021/12/04 08:56:19;;;;;;;2.80;1.13;;;;;;;;;;4994788;28;20484;-71
2021/12/04 08:59:05;;;;;;;2.10;1.00;;;;;;;;;;4992401;28;20026;-71
2021/12/04 09:01:50;;;;;;;1.48;1.02;;;;;;;;;;4994419;28;20026;-71
2021/12/04 09:04:36;;;;;;;3.80;1.52;;;;;;;;;;4992742;28;20336;-71
2021/12/04 09:07:21;;;;;;;2.33;1.02;;;;;;;;;;4993746;28;20065;-65
2021/12/04 09:10:08;;;;;;;3.53;1.20;;;;;;;;;;4986616;28;20066;-66
2021/12/04 09:12:54;;;;;;;5.50;1.10;;;;;;;;;;5039859;28;20038;-66
2021/12/04 09:15:40;;;;;;;2.45;1.30;;;;;;;;;;4991935;28;20058;-65
2021/12/04 09:18:26;;;;;;;2.97;1.52;;;;;;;;;;4980026;28;20037;-65
2021/12/04 09:21:11;;;;;;;2.13;1.10;;;;;;;;;;4962395;28;20042;-66
2021/12/04 10:00:19;;;;;;;3.20;1.63;;;;;;;;;;4993442;28;20124;-65
2021/12/04 10:12:29;;;;;;;1.42;1.00;;;;;;;;;;5020151;28;20041;-68
2021/12/04 10:24:32;;;;;;;3.05;1.35;;;;;;;;;;4974197;28;20047;-62
2021/12/04 10:33:26;;;;;;;3.53;1.10;;;;;;;;;;4990633;28;20026;-60
2021/12/04 10:36:12;;;;;;;3.03;1.02;;;;;;;;;;4979033;28;20053;-62
2021/12/04 10:38:58;;;;;;;1.63;1.30;;;;;;;;;;4991533;28;20056;-65
2021/12/04 10:41:45;;;;;;;1.02;0.93;;;;;;;;;;4992746;28;20029;-68
2021/12/04 10:44:31;;;;;;;4.07;1.52;;;;;;;;;;4992099;28;20049;-76
2021/12/04 10:47:22;;;;;;;1.42;1.00;;;;;;;;;;4978015;28;20045;-73
2021/12/04 10:50:58;;;;;;;3.38;1.40;;;;;;;;;;4992620;28;20030;-73
2021/12/04 10:53:21;;;;;;;2.65;1.20;;;;;;;;;;4991962;28;20041;-72
2021/12/04 10:56:24;;;;;;;1.80;1.02;;;;;;;;;;4992765;28;20029;-74
2021/12/04 10:59:33;;;;;;;1.40;0.90;;;;;;;;;;4971993;28;20389;-71
2021/12/04 11:02:25;;;;;;;3.78;1.40;;;;;;;;;;4961203;28;20242;-68
2021/12/04 11:21:01;;;;;;;2.45;1.25;;;;;;;;;;4991117;28;20574;-61
2021/12/04 11:36:20;;;;;;;1.50;1.10;;;;;;;;;;4990918;28;20030;-65
2021/12/04 11:45:09;;;;;;;3.00;1.10;;;;;;;;;;4976490;28;20404;-74
2021/12/04 11:47:57;;;;;;;1.10;1.00;;;;;;;;;;4995303;28;20116;-73
2021/12/04 11:50:51;;;;;;;1.38;1.02;;;;;;;;;;4994103;28;20134;-72
2021/12/04 11:53:36;;;;;;;2.05;1.10;;;;;;;;;;4995114;28;20090;-62
2021/12/04 11:56:24;;;;;;;2.28;0.77;;;;;;;;;;4993939;28;20037;-65
2021/12/04 11:59:10;;;;;;;1.70;1.08;;;;;;;;;;5052296;28;20400;-64
2021/12/04 12:01:56;;;;;;;2.30;1.00;;;;;;;;;;4964941;28;20031;-64
2021/12/04 12:04:47;;;;;;;2.13;1.20;;;;;;;;;;5055535;28;20153;-65
2021/12/04 12:07:33;;;;;;;1.95;1.00;;;;;;;;;;4961298;28;20034;-65
2021/12/04 12:10:19;;;;;;;1.27;0.80;;;;;;;;;;4982383;28;20353;-66
2021/12/04 12:13:06;;;;;;;1.02;0.73;;;;;;;;;;4975707;28;20042;-71
2021/12/04 12:15:59;;;;;;;0.80;0.70;;;;;;;;;;4993614;28;20385;-63
2021/12/04 12:18:50;;;;;;;1.15;0.90;;;;;;;;;;4982639;28;20457;-65
2021/12/04 12:21:49;;;;;;;1.25;1.00;;;;;;;;;;4968547;28;20033;-65
2021/12/04 12:36:41;;;;;;;1.98;1.30;;;;;;;;;;4965902;28;20034;-71
2021/12/04 12:39:26;;;;;;;1.88;1.10;;;;;;;;;;4969168;28;20114;-72
2021/12/04 12:42:21;;;;;;;1.23;0.70;;;;;;;;;;4967950;28;20065;-74
2021/12/04 12:45:14;;;;;;;1.35;0.98;;;;;;;;;;4968905;28;20030;-73
2021/12/04 12:48:01;;;;;;;2.08;1.60;;;;;;;;;;4967692;28;20027;-63
2021/12/04 12:50:47;;;;;;;0.80;0.80;;;;;;;;;;4968824;28;20511;-67
2021/12/04 12:53:39;;;;;;;3.15;0.75;;;;;;;;;;4942086;28;20202;-72
2021/12/04 12:56:25;;;;;;;1.83;1.00;;;;;;;;;;4955044;28;20027;-74
2021/12/04 12:59:22;;;;;;;2.08;0.90;;;;;;;;;;4967198;28;20470;-74
2021/12/04 13:14:28;;;;;;;1.02;0.88;;;;;;;;;;4956013;28;20034;-74
2021/12/04 13:17:21;;;;;;;2.17;0.90;;;;;;;;;;4951340;28;20432;-73
2021/12/04 13:20:07;;;;;;;5.03;1.00;;;;;;;;;;4993428;28;20389;-73
2021/12/04 13:22:52;;;;;;;2.63;1.00;;;;;;;;;;4978609;28;20034;-74
2021/12/04 13:25:38;;;;;;;1.23;0.85;;;;;;;;;;4987919;28;20039;-63
2021/12/04 13:28:24;;;;;;;6.47;3.97;;;;;;;;;;4992434;28;20022;-66
2021/12/04 13:31:10;;;;;;;9.63;5.05;;;;;;;;;;4979950;28;20074;-68
2021/12/04 13:33:56;;;;;;;4.00;1.33;;;;;;;;;;4992228;28;20525;-65
2021/12/04 13:36:45;;;;;;;3.08;1.45;;;;;;;;;;4993953;28;20069;-64
2021/12/04 13:39:31;;;;;;;0.80;0.80;;;;;;;;;;4992180;28;20025;-65
2021/12/04 13:42:16;;;;;;;2.58;0.93;;;;;;;;;;4993279;28;20503;-64
2021/12/04 13:45:04;;;;;;;3.38;0.95;;;;;;;;;;4978508;28;20580;-64
2021/12/04 13:47:51;;;;;;;2.38;1.10;;;;;;;;;;4993681;28;20029;-64
2021/12/04 13:53:25;;;;;;;2.65;1.75;;;;;;;;;;4992850;28;20389;-64
2021/12/04 13:56:13;;;;;;;2.70;1.60;;;;;;;;;;4964682;28;20034;-65
2021/12/04 13:59:00;;;;;;;1.17;1.00;;;;;;;;;;4973796;28;20061;-64
2021/12/04 14:01:47;;;;;;;1.40;0.82;;;;;;;;;;4991067;28;20050;-66
2021/12/04 14:04:33;;;;;;;1.92;1.13;;;;;;;;;;4979324;28;20030;-70
2021/12/04 14:07:18;;;;;;;2.22;1.20;;;;;;;;;;4973579;28;20424;-69
2021/12/04 14:10:14;;;;;;;2.53;1.30;;;;;;;;;;4977659;28;20032;-70
2021/12/04 14:13:01;;;;;;;12.00;7.38;;;;;;;;;;4992203;28;20026;-71
2021/12/04 14:15:47;;;;;;;4.28;2.45;;;;;;;;;;4977835;28;20057;-69
2021/12/04 14:18:34;;;;;;;3.22;1.30;;;;;;;;;;5036251;28;20096;-70
2021/12/04 14:21:20;;;;;;;4.22;1.48;;;;;;;;;;5067311;28;20021;-72
2021/12/04 14:24:05;;;;;;;3.85;1.45;;;;;;;;;;5066801;28;20040;-63
2021/12/04 14:26:54;;;;;;;5.40;1.60;;;;;;;;;;5058688;28;20502;-64
2021/12/04 14:29:41;;;;;;;4.50;1.70;;;;;;;;;;5068800;28;20166;-65
2021/12/04 14:32:28;;;;;;;3.25;1.30;;;;;;;;;;5067090;28;20028;-66
2021/12/04 14:35:15;;;;;;;3.42;2.10;;;;;;;;;;5054775;28;20029;-64
2021/12/04 14:38:01;;;;;;;2.88;1.58;;;;;;;;;;5068235;28;20047;-64
2021/12/04 14:40:57;;;;;;;3.50;1.35;;;;;;;;;;5054762;28;20056;-75
2021/12/04 14:43:43;;;;;;;2.05;1.27;;;;;;;;;;5064094;28;20079;-64
2021/12/04 14:46:29;;;;;;;4.40;1.40;;;;;;;;;;5067308;28;20468;-63
2021/12/04 14:49:14;;;;;;;2.28;1.30;;;;;;;;;;5059644;28;20361;-65
2021/12/04 14:52:00;;;;;;;2.70;1.25;;;;;;;;;;5051812;28;20564;-67
2021/12/04 14:54:45;;;;;;;3.22;1.35;;;;;;;;;;5048571;28;20029;-68
2021/12/04 14:57:30;;;;;;;2.53;1.52;;;;;;;;;;5053971;28;20032;-74
2021/12/04 15:00:16;;;;;;;4.15;2.55;;;;;;;;;;5054605;28;20021;-70
2021/12/04 15:03:03;;;;;;;9.00;5.53;;;;;;;;;;5065985;28;20107;-71
2021/12/04 15:05:50;;;;;;;6.22;3.72;;;;;;;;;;5050502;28;20060;-71
2021/12/04 15:08:38;;;;;;;1.77;1.33;;;;;;;;;;5053419;28;20040;-70
2021/12/04 15:11:25;;;;;;;1.70;1.20;;;;;;;;;;5054455;28;20032;-70
2021/12/04 15:14:14;;;;;;;2.47;1.30;;;;;;;;;;5067397;28;20028;-73
2021/12/04 15:17:04;;;;;;;2.55;1.52;;;;;;;;;;5068177;28;21719;-74
2021/12/04 15:19:53;;;;;;;2.33;1.50;;;;;;;;;;5068698;28;20049;-73
2021/12/04 15:22:43;;;;;;;3.17;1.30;;;;;;;;;;5071967;28;20391;-71
2021/12/04 15:25:31;;;;;;;2.53;1.23;;;;;;;;;;5045758;28;20041;-70
2021/12/04 15:28:18;;;;;;;2.33;1.20;;;;;;;;;;5054377;28;20422;-72
2021/12/04 15:31:04;;;;;;;8.40;5.53;;;;;;;;;;5071920;28;20024;-70
2021/12/04 15:33:50;;;;;;;14.57;7.70;;;;;;;;;;5070766;28;20035;-67
2021/12/04 15:36:39;;;;;;;3.88;2.72;;;;;;;;;;5058362;28;20225;-65
2021/12/04 15:39:31;;;;;;;4.68;2.00;;;;;;;;;;5050569;28;20074;-67
2021/12/04 15:51:26;;;;;;;2.22;1.73;;;;;;;;;;5053789;28;20108;-64
2021/12/04 15:54:15;;;;;;;3.20;2.05;;;;;;;;;;5070351;28;20020;-67
2021/12/04 15:57:08;;;;;;;3.10;2.15;;;;;;;;;;5071765;28;20020;-63
2021/12/04 15:59:53;;;;;;;3.55;2.00;;;;;;;;;;5070295;28;20042;-64
2021/12/04 16:02:40;;;;;;;4.82;2.17;;;;;;;;;;5071328;28;20032;-64
2021/12/04 16:05:26;;;;;;;4.20;2.25;;;;;;;;;;5067079;28;20032;-63
2021/12/04 16:08:14;;;;;;;6.07;2.45;;;;;;;;;;5052034;28;20061;-63
2021/12/04 16:11:02;;;;;;;3.55;1.88;;;;;;;;;;5062686;28;20115;-75
2021/12/04 16:13:50;;;;;;;2.43;1.50;;;;;;;;;;5053818;28;20036;-72
2021/12/04 16:16:40;;;;;;;4.95;2.15;;;;;;;;;;5069844;28;20471;-72
2021/12/04 16:19:28;;;;;;;7.80;1.65;;;;;;;;;;5070662;28;20052;-72
2021/12/04 16:22:13;;;;;;;2.40;1.50;;;;;;;;;;5069381;28;20056;-72
2021/12/04 16:24:59;;;;;;;4.15;1.58;;;;;;;;;;5048050;28;20039;-71
2021/12/04 16:30:55;;;;;;;2.47;1.30;;;;;;;;;;5053834;28;20070;-68
2021/12/04 16:37:03;;;;;;;3.92;1.65;;;;;;;;;;5069537;28;20032;-66
2021/12/04 16:39:48;;;;;;;9.65;3.15;;;;;;;;;;5070805;28;20024;-66
2021/12/04 16:42:34;;;;;;;7.60;3.10;;;;;;;;;;5068943;28;20028;-64
2021/12/04 16:45:21;;;;;;;8.88;3.15;;;;;;;;;;5070864;28;20040;-63
2021/12/04 16:48:08;;;;;;;14.05;3.10;;;;;;;;;;5039163;28;20032;-72
2021/12/04 16:57:24;;;;;;;10.95;4.85;;;;;;;;;;5053963;28;20024;-72
2021/12/04 17:00:09;;;;;;;9.32;2.60;;;;;;;;;;5056430;28;20024;-72
2021/12/04 17:02:56;;;;;;;5.00;2.60;;;;;;;;;;5069114;28;20035;-71
2021/12/04 17:05:42;;;;;;;5.43;2.10;;;;;;;;;;5069029;28;20033;-68
2021/12/04 17:08:27;;;;;;;4.45;2.30;;;;;;;;;;5063048;28;20070;-64
2021/12/04 17:11:12;;;;;;;5.80;2.15;;;;;;;;;;5056122;28;20021;-67
2021/12/04 17:13:57;;;;;;;6.47;2.83;;;;;;;;;;5061293;28;20029;-65
2021/12/04 17:16:43;;;;;;;7.10;2.38;;;;;;;;;;5036433;28;20025;-65
2021/12/04 17:19:28;;;;;;;6.63;3.00;;;;;;;;;;5054444;28;20052;-65
2021/12/04 17:22:13;;;;;;;7.97;3.85;;;;;;;;;;5059641;28;20484;-65
2021/12/04 17:24:59;;;;;;;4.32;3.10;;;;;;;;;;5069752;28;20036;-62
2021/12/04 17:27:44;;;;;;;5.63;3.05;;;;;;;;;;5068625;28;20471;-63
2021/12/04 17:30:29;;;;;;;7.00;3.35;;;;;;;;;;5069888;28;20048;-65
2021/12/04 17:33:15;;;;;;;8.38;2.75;;;;;;;;;;5054838;28;20102;-64
2021/12/04 17:36:01;;;;;;;3.72;2.00;;;;;;;;;;5055987;28;20317;-65
2021/12/04 17:38:47;;;;;;;5.22;2.45;;;;;;;;;;5046035;28;20024;-64
2021/12/04 17:41:33;;;;;;;4.35;2.50;;;;;;;;;;5069573;28;20029;-65
2021/12/04 17:44:20;;;;;;;9.02;2.60;;;;;;;;;;5047239;28;20032;-68
2021/12/04 17:47:05;;;;;;;4.68;2.40;;;;;;;;;;5050038;28;20376;-62
2021/12/04 17:49:50;;;;;;;7.43;2.80;;;;;;;;;;5061478;28;20040;-62
2021/12/04 17:52:36;;;;;;;3.72;2.45;;;;;;;;;;5069820;28;20063;-62
2021/12/04 17:55:22;;;;;;;3.92;1.40;;;;;;;;;;5068288;28;20033;-62
2021/12/04 17:58:07;;;;;;;4.45;2.20;;;;;;;;;;5069527;28;20017;-62
2021/12/04 18:00:55;;;;;;;3.35;1.80;;;;;;;;;;5038310;28;20060;-63
2021/12/04 18:03:40;;;;;;;2.90;1.35;;;;;;;;;;5049014;28;20468;-64
2021/12/04 18:06:26;;;;;;;2.58;1.30;;;;;;;;;;5068382;28;20103;-63
2021/12/04 18:09:12;;;;;;;4.78;1.40;;;;;;;;;;5068080;28;20025;-62
2021/12/04 18:12:00;;;;;;;1.80;1.08;;;;;;;;;;5063043;28;20029;-62
2021/12/04 18:14:47;;;;;;;2.42;1.35;;;;;;;;;;5059243;28;20029;-62
2021/12/04 18:17:32;;;;;;;2.05;0.70;;;;;;;;;;5056535;28;20538;-63
2021/12/04 18:20:20;;;;;;;1.88;0.95;;;;;;;;;;4978116;28;20549;-62
2021/12/04 18:23:06;;;;;;;3.08;0.90;;;;;;;;;;4992828;28;20078;-65
2021/12/04 18:25:51;;;;;;;1.70;1.00;;;;;;;;;;4985043;28;20076;-63
2021/12/04 18:28:37;;;;;;;1.98;0.80;;;;;;;;;;4992902;28;20117;-64
2021/12/04 18:31:22;;;;;;;1.17;0.70;;;;;;;;;;4991594;28;20136;-66
2021/12/04 18:34:09;;;;;;;0.73;0.70;;;;;;;;;;4993787;28;20379;-65
2021/12/04 18:36:55;;;;;;;1.48;1.10;;;;;;;;;;5013976;28;20040;-68
2021/12/04 18:39:40;;;;;;;1.30;1.20;;;;;;;;;;4992851;28;20120;-72
2021/12/04 18:42:25;;;;;;;1.00;0.70;;;;;;;;;;4991774;28;20548;-75
2021/12/04 18:45:11;;;;;;;2.05;0.65;;;;;;;;;;4992530;28;20034;-73
2021/12/04 18:47:59;;;;;;;1.42;0.85;;;;;;;;;;4977928;28;20056;-73
2021/12/04 18:50:44;;;;;;;0.65;0.60;;;;;;;;;;4992713;28;20033;-75
2021/12/04 18:53:30;;;;;;;1.15;0.70;;;;;;;;;;4992238;28;20487;-76
2021/12/04 18:56:15;;;;;;;0.65;0.63;;;;;;;;;;4991149;28;20069;-70
2021/12/04 18:59:00;;;;;;;0.63;0.63;;;;;;;;;;4992416;28;20022;-61
2021/12/04 19:01:47;;;;;;;0.85;0.85;;;;;;;;;;4977347;28;20445;-67
2021/12/04 19:04:33;;;;;;;0.77;0.65;;;;;;;;;;4992142;28;20053;-67
2021/12/04 19:07:18;;;;;;;0.80;0.80;;;;;;;;;;4984732;28;20034;-67
2021/12/04 19:10:04;;;;;;;2.30;0.77;;;;;;;;;;4992324;28;20026;-69
2021/12/04 19:12:49;;;;;;;1.05;0.75;;;;;;;;;;4991252;28;20029;-66
2021/12/04 19:15:36;;;;;;;0.68;0.60;;;;;;;;;;4973120;28;20026;-65
2021/12/04 19:18:21;;;;;;;1.08;0.60;;;;;;;;;;4984198;28;20056;-74
2021/12/04 19:21:07;;;;;;;3.53;0.77;;;;;;;;;;4978418;28;20587;-73
2021/12/04 19:23:53;;;;;;;1.02;0.95;;;;;;;;;;4986827;28;20040;-73
2021/12/04 19:26:38;;;;;;;1.02;0.70;;;;;;;;;;4986452;28;20022;-75
2021/12/04 19:29:25;;;;;;;0.60;0.60;;;;;;;;;;4989555;28;20044;-73
2021/12/04 19:32:21;;;;;;;0.70;0.70;;;;;;;;;;4991984;28;20036;-75
2021/12/04 19:35:26;;;;;;;0.70;0.70;;;;;;;;;;4986312;28;20030;-64
2021/12/04 19:50:36;;;;;;;1.83;0.88;;;;;;;;;;4989065;28;20040;-67
2021/12/04 19:53:38;;;;;;;3.47;1.25;;;;;;;;;;4977083;28;20022;-70
2021/12/04 19:56:34;;;;;;;1.05;0.90;;;;;;;;;;4991746;28;20029;-66
2021/12/04 19:59:21;;;;;;;0.80;0.80;;;;;;;;;;4990809;28;20079;-66
2021/12/04 20:14:05;;;;;;;0.68;0.68;;;;;;;;;;4986208;28;20050;-76
2021/12/04 20:16:51;;;;;;;1.33;0.88;;;;;;;;;;4975793;28;20044;-77
2021/12/04 20:19:36;;;;;;;1.15;1.00;;;;;;;;;;4952074;28;20043;-75
2021/12/04 20:22:23;;;;;;;1.10;1.00;;;;;;;;;;4969562;28;20041;-74
2021/12/04 20:25:14;;;;;;;2.45;0.80;;;;;;;;;;4950785;28;20440;-75
2021/12/04 20:28:04;;;;;;;0.88;0.73;;;;;;;;;;4956011;28;20080;-75
2021/12/04 20:31:02;;;;;;;4.80;1.10;;;;;;;;;;4968069;28;20045;-73